createdAt,value
2019-06-26T00:01:15.676Z,63.36
2019-06-26T00:03:17.265Z,63.34
2019-06-26T00:05:18.919Z,63.67
2019-06-26T00:07:20.520Z,63.38
2019-06-26T00:09:22.140Z,63.36
2019-06-26T00:11:23.715Z,63.59
2019-06-26T00:13:26.832Z,63.42
2019-06-26T00:15:26.939Z,63.54
2019-06-26T00:17:28.560Z,63.51
2019-06-26T00:19:30.146Z,63.51
2019-06-26T00:21:31.779Z,63.42
2019-06-26T00:23:33.368Z,63.55
2019-06-26T00:25:34.953Z,63.42
2019-06-26T00:27:36.564Z,63.39
2019-06-26T00:29:38.159Z,63.36
2019-06-26T00:31:39.742Z,63.61
2019-06-26T00:33:41.333Z,63.66
2019-06-26T00:35:42.920Z,63.57
2019-06-26T00:37:44.499Z,63.51
2019-06-26T00:39:46.096Z,63.77
2019-06-26T00:41:47.742Z,64.06
2019-06-26T00:43:49.372Z,63.84
2019-06-26T00:45:50.947Z,63.70
2019-06-26T00:47:52.591Z,63.63
2019-06-26T00:49:54.171Z,63.58
2019-06-26T00:51:55.748Z,63.61
2019-06-26T00:53:57.361Z,63.69
2019-06-26T00:55:58.952Z,63.65
2019-06-26T00:58:00.567Z,63.71
2019-06-26T01:00:02.199Z,63.65
2019-06-26T01:02:03.784Z,63.73
2019-06-26T01:04:08.238Z,63.41
2019-06-26T01:06:09.810Z,63.65
2019-06-26T01:08:11.429Z,63.98
2019-06-26T01:10:13.017Z,63.59
2019-06-26T01:12:14.586Z,63.87
2019-06-26T01:14:16.218Z,63.81
2019-06-26T01:16:17.830Z,63.69
2019-06-26T01:18:19.465Z,63.71
2019-06-26T01:20:21.035Z,63.72
2019-06-26T01:22:22.624Z,64.00
2019-06-26T01:24:24.240Z,63.96
2019-06-26T01:26:25.885Z,63.85
2019-06-26T01:28:27.509Z,64.09
2019-06-26T01:30:29.115Z,64.11
2019-06-26T01:32:30.701Z,63.88
2019-06-26T01:34:32.333Z,63.77
2019-06-26T01:36:33.914Z,63.62
2019-06-26T01:38:35.545Z,63.74
2019-06-26T01:40:37.123Z,63.69
2019-06-26T01:42:38.712Z,63.76
2019-06-26T01:44:40.327Z,63.80
2019-06-26T01:46:41.915Z,63.81
2019-06-26T01:48:43.523Z,63.95
2019-06-26T01:50:45.111Z,63.94
2019-06-26T01:52:46.700Z,63.99
2019-06-26T01:54:48.320Z,64.06
2019-06-26T01:56:49.895Z,64.56
2019-06-26T01:58:51.514Z,64.49
2019-06-26T02:00:53.096Z,64.28
2019-06-26T02:02:54.681Z,64.33
2019-06-26T02:04:56.302Z,64.16
2019-06-26T02:06:58.023Z,64.07
2019-06-26T02:08:59.572Z,64.11
2019-06-26T02:11:01.161Z,64.16
2019-06-26T02:13:02.760Z,64.08
2019-06-26T02:15:04.416Z,64.20
2019-06-26T02:17:06.007Z,64.35
2019-06-26T02:19:09.024Z,64.10
2019-06-26T02:21:10.610Z,63.16
2019-06-26T02:23:12.197Z,64.12
2019-06-26T02:25:13.785Z,64.49
2019-06-26T02:27:15.385Z,64.42
2019-06-26T02:29:17.011Z,64.83
2019-06-26T02:31:18.608Z,65.00
2019-06-26T02:33:20.197Z,64.09
2019-06-26T02:35:21.788Z,64.78
2019-06-26T02:37:23.367Z,64.61
2019-06-26T02:39:24.994Z,64.56
2019-06-26T02:41:26.581Z,65.02
2019-06-26T02:43:28.220Z,65.30
2019-06-26T02:45:29.812Z,64.74
2019-06-26T02:47:31.388Z,64.78
2019-06-26T02:49:33.003Z,64.56
2019-06-26T02:51:34.589Z,64.53
2019-06-26T02:53:36.183Z,64.45
2019-06-26T02:55:37.768Z,64.10
2019-06-26T02:57:39.366Z,64.67
2019-06-26T02:59:40.961Z,64.82
2019-06-26T03:01:42.596Z,64.76
2019-06-26T03:03:44.180Z,63.92
2019-06-26T03:05:45.771Z,64.68
2019-06-26T03:07:47.420Z,64.71
2019-06-26T03:09:49.039Z,64.83
2019-06-26T03:11:50.628Z,65.15
2019-06-26T03:13:52.209Z,64.60
2019-06-26T03:15:53.836Z,65.03
2019-06-26T03:17:55.982Z,65.04
2019-06-26T03:19:57.101Z,64.80
2019-06-26T03:21:58.684Z,64.97
2019-06-26T03:24:00.272Z,64.88
2019-06-26T03:26:01.908Z,64.61
2019-06-26T03:28:03.931Z,64.93
2019-06-26T03:30:05.509Z,65.15
2019-06-26T03:32:07.210Z,65.22
2019-06-26T03:34:08.796Z,65.06
2019-06-26T03:36:10.417Z,65.15
2019-06-26T03:38:12.004Z,65.08
2019-06-26T03:40:13.689Z,65.15
2019-06-26T03:42:15.299Z,65.18
2019-06-26T03:44:16.884Z,65.14
2019-06-26T03:46:18.511Z,65.38
2019-06-26T03:48:20.097Z,65.51
2019-06-26T03:50:21.744Z,65.42
2019-06-26T03:52:23.344Z,65.43
2019-06-26T03:54:24.925Z,65.60
2019-06-26T03:56:26.536Z,65.60
2019-06-26T03:58:28.127Z,65.74
2019-06-26T04:00:29.706Z,65.94
2019-06-26T04:02:31.365Z,65.66
2019-06-26T04:04:32.953Z,65.70
2019-06-26T04:06:34.576Z,65.81
2019-06-26T04:08:36.167Z,65.75
2019-06-26T04:10:37.752Z,65.89
2019-06-26T04:12:39.345Z,65.88
2019-06-26T04:14:40.923Z,65.83
2019-06-26T04:16:42.645Z,65.51
2019-06-26T04:18:44.165Z,65.69
2019-06-26T04:20:45.754Z,65.68
2019-06-26T04:22:47.732Z,65.64
2019-06-26T04:24:48.988Z,65.61
2019-06-26T04:26:50.615Z,65.53
2019-06-26T04:28:52.216Z,65.38
2019-06-26T04:30:53.805Z,65.48
2019-06-26T04:32:55.429Z,65.43
2019-06-26T04:34:57.013Z,65.53
2019-06-26T04:36:58.627Z,65.31
2019-06-26T04:39:00.267Z,65.22
2019-06-26T04:41:01.872Z,65.25
2019-06-26T04:43:03.493Z,65.29
2019-06-26T04:45:05.103Z,65.22
2019-06-26T04:47:06.755Z,65.27
2019-06-26T04:49:08.366Z,65.33
2019-06-26T04:51:09.983Z,65.05
2019-06-26T04:53:11.566Z,65.06
2019-06-26T04:55:13.201Z,65.01
2019-06-26T04:57:14.839Z,65.04
2019-06-26T04:59:16.456Z,65.03
2019-06-26T05:01:18.038Z,65.01
2019-06-26T05:03:19.624Z,64.99
2019-06-26T05:05:21.213Z,64.91
2019-06-26T05:07:22.821Z,64.87
2019-06-26T05:09:24.412Z,64.83
2019-06-26T05:11:26.010Z,64.83
2019-06-26T05:13:27.620Z,64.73
2019-06-26T05:15:29.248Z,64.88
2019-06-26T05:17:30.851Z,64.75
2019-06-26T05:19:32.464Z,64.74
2019-06-26T05:21:34.116Z,64.65
2019-06-26T05:23:35.703Z,64.75
2019-06-26T05:25:37.290Z,64.73
2019-06-26T05:27:38.905Z,64.71
2019-06-26T05:29:40.500Z,64.75
2019-06-26T05:31:42.126Z,64.82
2019-06-26T05:33:43.736Z,64.80
2019-06-26T05:35:45.429Z,64.84
2019-06-26T05:37:47.016Z,64.80
2019-06-26T05:39:48.689Z,64.77
2019-06-26T05:41:50.323Z,64.81
2019-06-26T05:43:51.981Z,64.84
2019-06-26T05:45:53.593Z,64.82
2019-06-26T05:47:55.236Z,64.65
2019-06-26T05:49:56.828Z,64.75
2019-06-26T05:52:01.961Z,64.68
2019-06-26T05:54:06.854Z,64.66
2019-06-26T05:56:08.468Z,64.54
2019-06-26T05:58:10.111Z,64.71
2019-06-26T06:00:11.710Z,64.73
2019-06-26T06:02:13.342Z,64.60
2019-06-26T06:04:14.952Z,64.67
2019-06-26T06:06:16.572Z,64.70
2019-06-26T06:08:18.209Z,65.14
2019-06-26T06:10:19.799Z,65.06
2019-06-26T06:12:21.386Z,65.08
2019-06-26T06:14:22.976Z,64.94
2019-06-26T06:16:24.572Z,65.01
2019-06-26T06:18:26.183Z,64.94
2019-06-26T06:20:27.787Z,64.81
2019-06-26T06:22:29.395Z,65.79
2019-06-26T06:24:31.032Z,66.07
2019-06-26T06:26:32.626Z,66.30
2019-06-26T06:28:34.268Z,66.63
2019-06-26T06:30:35.944Z,66.68
2019-06-26T06:32:37.564Z,66.64
2019-06-26T06:34:39.195Z,66.54
2019-06-26T06:36:40.804Z,66.78
2019-06-26T06:38:42.428Z,66.44
2019-06-26T06:40:44.036Z,66.56
2019-06-26T06:42:45.657Z,66.32
2019-06-26T06:44:47.421Z,66.45
2019-06-26T06:47:02.634Z,66.54
2019-06-26T06:48:50.612Z,66.33
2019-06-26T06:50:52.235Z,66.27
2019-06-26T06:52:53.831Z,66.55
2019-06-26T06:54:55.420Z,66.64
2019-06-26T06:56:57.030Z,66.74
2019-06-26T06:58:58.643Z,66.45
2019-06-26T07:01:00.249Z,66.97
2019-06-26T07:03:01.827Z,66.34
2019-06-26T07:05:03.445Z,65.87
2019-06-26T07:07:05.056Z,66.33
2019-06-26T07:09:06.702Z,66.34
2019-06-26T07:11:08.550Z,67.42
2019-06-26T07:13:10.147Z,66.64
2019-06-26T07:15:11.743Z,66.36
2019-06-26T07:17:20.788Z,65.90
2019-06-26T07:19:15.008Z,65.83
2019-06-26T07:21:16.619Z,66.07
2019-06-26T07:23:18.222Z,66.30
2019-06-26T07:25:19.795Z,66.12
2019-06-26T07:27:21.395Z,66.71
2019-06-26T07:29:23.000Z,66.98
2019-06-26T07:31:24.592Z,66.86
2019-06-26T07:33:26.207Z,67.83
2019-06-26T07:35:27.831Z,67.19
2019-06-26T07:37:29.469Z,66.99
2019-06-26T07:39:31.085Z,66.22
2019-06-26T07:41:32.687Z,66.37
2019-06-26T07:43:34.292Z,66.09
2019-06-26T07:45:35.900Z,66.75
2019-06-26T07:47:43.673Z,68.16
2019-06-26T07:49:39.187Z,67.17
2019-06-26T07:51:40.789Z,67.40
2019-06-26T07:53:42.417Z,67.53
2019-06-26T07:55:44.020Z,67.88
2019-06-26T07:57:45.608Z,66.18
2019-06-26T07:59:47.197Z,66.69
2019-06-26T08:01:48.905Z,67.41
2019-06-26T08:03:50.524Z,67.67
2019-06-26T08:05:52.130Z,68.25
2019-06-26T08:07:53.748Z,68.44
2019-06-26T08:09:55.374Z,69.11
2019-06-26T08:11:56.962Z,68.65
2019-06-26T08:13:58.592Z,68.28
2019-06-26T08:16:00.204Z,68.30
2019-06-26T08:18:01.807Z,68.28
2019-06-26T08:20:03.453Z,68.33
2019-06-26T08:22:05.054Z,68.49
2019-06-26T08:24:06.669Z,68.14
2019-06-26T08:26:08.302Z,67.98
2019-06-26T08:28:09.903Z,68.28
2019-06-26T08:30:11.538Z,68.21
2019-06-26T08:32:13.150Z,68.24
2019-06-26T08:34:14.738Z,68.11
2019-06-26T08:36:16.359Z,67.45
2019-06-26T08:38:17.958Z,67.77
2019-06-26T08:40:19.604Z,67.69
2019-06-26T08:42:21.189Z,67.54
2019-06-26T08:44:22.800Z,67.43
2019-06-26T08:46:24.415Z,67.53
2019-06-26T08:48:39.072Z,67.49
2019-06-26T08:50:27.672Z,67.46
2019-06-26T08:52:29.289Z,67.49
2019-06-26T08:54:30.890Z,67.41
2019-06-26T08:56:32.493Z,67.41
2019-06-26T08:58:34.104Z,67.35
2019-06-26T09:00:35.728Z,67.40
2019-06-26T09:02:37.327Z,67.44
2019-06-26T09:04:38.936Z,67.07
2019-06-26T09:06:40.535Z,67.32
2019-06-26T09:08:42.120Z,67.51
2019-06-26T09:10:44.999Z,67.14
2019-06-26T09:12:56.504Z,66.83
2019-06-26T09:14:58.147Z,66.91
2019-06-26T09:17:05.587Z,67.04
2019-06-26T09:19:11.022Z,67.05
2019-06-26T09:21:12.852Z,66.91
2019-06-26T09:23:14.424Z,66.81
2019-06-26T09:25:21.920Z,66.77
2019-06-26T09:27:17.741Z,66.86
2019-06-26T09:29:23.823Z,66.42
2019-06-26T09:31:33.744Z,65.74
2019-06-26T09:33:35.390Z,66.30
2019-06-26T09:35:37.130Z,65.34
2019-06-26T09:37:38.743Z,65.03
2019-06-26T09:39:40.416Z,65.73
2019-06-26T09:41:41.999Z,64.93
2019-06-26T09:43:43.644Z,65.35
2019-06-26T09:45:45.296Z,65.43
2019-06-26T09:47:46.908Z,65.56
2019-06-26T09:49:48.506Z,65.48
2019-06-26T09:51:51.074Z,65.64
2019-06-26T09:53:52.673Z,66.08
2019-06-26T09:55:54.446Z,66.71
2019-06-26T09:57:56.070Z,67.48
2019-06-26T09:59:57.684Z,67.76
2019-06-26T10:01:59.317Z,66.22
2019-06-26T10:04:02.772Z,65.37
2019-06-26T10:06:04.416Z,65.16
2019-06-26T10:08:06.018Z,65.10
2019-06-26T10:10:07.664Z,66.39
2019-06-26T10:12:09.295Z,65.72
2019-06-26T10:14:10.926Z,65.82
2019-06-26T10:16:12.513Z,66.05
2019-06-26T10:18:14.104Z,65.50
2019-06-26T10:20:15.724Z,65.77
2019-06-26T10:22:17.319Z,65.96
2019-06-26T10:24:18.924Z,66.40
2019-06-26T10:26:20.527Z,67.15
2019-06-26T10:28:22.291Z,67.05
2019-06-26T10:30:23.812Z,67.18
2019-06-26T10:32:25.448Z,66.99
2019-06-26T10:34:27.038Z,66.99
2019-06-26T10:36:28.639Z,67.15
2019-06-26T10:38:30.332Z,66.91
2019-06-26T10:40:31.896Z,66.74
2019-06-26T10:42:33.518Z,66.93
2019-06-26T10:44:35.137Z,67.36
2019-06-26T10:46:36.774Z,67.48
2019-06-26T10:48:38.363Z,67.37
2019-06-26T10:50:49.830Z,67.37
2019-06-26T10:52:41.621Z,66.24
2019-06-26T10:54:44.526Z,65.70
2019-06-26T10:56:44.863Z,65.28
2019-06-26T10:58:46.480Z,65.21
2019-06-26T11:00:48.242Z,65.02
2019-06-26T11:02:49.791Z,64.99
2019-06-26T11:04:51.401Z,64.80
2019-06-26T11:06:53.034Z,64.76
2019-06-26T11:08:54.642Z,64.73
2019-06-26T11:10:56.331Z,64.75
2019-06-26T11:12:57.938Z,64.84
2019-06-26T11:14:59.538Z,64.99
2019-06-26T11:17:01.139Z,65.07
2019-06-26T11:19:02.755Z,65.12
2019-06-26T11:21:04.376Z,64.88
2019-06-26T11:23:06.046Z,64.90
2019-06-26T11:25:07.676Z,65.41
2019-06-26T11:27:09.328Z,65.44
2019-06-26T11:29:10.941Z,65.53
2019-06-26T11:31:12.552Z,65.55
2019-06-26T11:33:14.140Z,65.55
2019-06-26T11:35:15.762Z,65.51
2019-06-26T11:37:17.419Z,65.48
2019-06-26T11:39:19.040Z,65.41
2019-06-26T11:41:20.658Z,65.33
2019-06-26T11:43:22.289Z,65.25
2019-06-26T11:45:23.895Z,65.17
2019-06-26T11:47:25.548Z,65.09
2019-06-26T11:49:27.140Z,65.08
2019-06-26T11:51:28.754Z,64.98
2019-06-26T11:53:30.380Z,64.94
2019-06-26T11:55:32.056Z,64.88
2019-06-26T11:57:33.693Z,64.87
2019-06-26T11:59:35.300Z,64.82
2019-06-26T12:01:36.899Z,64.79
2019-06-26T12:03:38.498Z,64.73
2019-06-26T12:05:40.162Z,64.68
2019-06-26T12:07:41.816Z,64.65
2019-06-26T12:09:43.457Z,64.62
2019-06-26T12:11:45.056Z,64.57
2019-06-26T12:13:46.658Z,64.55
2019-06-26T12:15:48.280Z,64.52
2019-06-26T12:17:50.059Z,64.49
2019-06-26T12:19:51.651Z,64.46
2019-06-26T12:21:53.315Z,64.41
2019-06-26T12:23:54.937Z,64.40
2019-06-26T12:25:56.532Z,64.37
2019-06-26T12:27:58.198Z,64.34
2019-06-26T12:29:59.838Z,64.27
2019-06-26T12:32:01.499Z,64.25
2019-06-26T12:34:03.154Z,64.22
2019-06-26T12:36:04.785Z,64.21
2019-06-26T12:38:06.405Z,64.19
2019-06-26T12:40:08.038Z,64.18
2019-06-26T12:42:09.646Z,64.17
2019-06-26T12:44:11.299Z,64.13
2019-06-26T12:46:12.899Z,64.12
2019-06-26T12:48:16.275Z,64.08
2019-06-26T12:50:16.200Z,64.04
2019-06-26T12:52:17.838Z,64.04
2019-06-26T12:56:26.542Z,64.00
2019-06-26T12:58:28.171Z,63.96
2019-06-26T13:00:29.799Z,63.97
2019-06-26T13:02:31.437Z,63.94
2019-06-26T13:04:33.065Z,63.93
2019-06-26T13:06:34.694Z,63.93
2019-06-26T13:08:36.367Z,63.86
2019-06-26T13:12:50.471Z,63.80
2019-06-26T13:14:52.112Z,63.80
2019-06-26T13:16:53.772Z,63.79
2019-06-26T13:19:01.123Z,63.77
2019-06-26T13:21:05.311Z,63.75
2019-06-26T13:23:05.988Z,63.72
2019-06-26T13:25:07.629Z,63.70
2019-06-26T13:27:09.344Z,63.65
2019-06-26T13:29:11.140Z,63.65
2019-06-26T13:31:12.804Z,63.64
2019-06-26T13:33:14.448Z,63.66
2019-06-26T13:35:16.348Z,63.67
2019-06-26T13:37:17.987Z,63.65
2019-06-26T13:39:19.703Z,63.66
2019-06-26T13:41:21.381Z,63.65
2019-06-26T13:43:23.115Z,63.64
2019-06-26T13:45:24.867Z,63.61
2019-06-26T13:47:26.575Z,63.62
2019-06-26T13:49:28.242Z,63.59
2019-06-26T13:51:29.850Z,63.57
2019-06-26T13:53:31.487Z,63.56
2019-06-26T13:55:33.133Z,63.56
2019-06-26T13:57:34.821Z,63.54
2019-06-26T13:59:36.444Z,63.52
2019-06-26T14:01:38.068Z,63.50
2019-06-26T14:03:39.748Z,63.55
2019-06-26T14:05:41.478Z,63.52
2019-06-26T14:07:43.079Z,63.50
2019-06-26T14:09:44.765Z,63.54
2019-06-26T14:11:46.440Z,63.53
2019-06-26T14:13:48.141Z,63.54
2019-06-26T14:15:49.802Z,63.53
2019-06-26T14:17:51.390Z,63.51
2019-06-26T14:19:53.034Z,63.52
2019-06-26T14:21:54.619Z,63.53
2019-06-26T14:23:56.229Z,63.52
2019-06-26T14:25:57.816Z,63.52
2019-06-26T14:27:59.409Z,63.51
2019-06-26T14:30:01.045Z,63.53
2019-06-26T14:32:02.628Z,63.49
2019-06-26T14:34:04.633Z,63.49
2019-06-26T14:36:06.219Z,63.49
2019-06-26T14:38:07.805Z,63.49
2019-06-26T14:40:09.415Z,63.49
2019-06-26T14:42:11.103Z,63.49
2019-06-26T14:44:12.725Z,63.48
2019-06-26T14:46:14.317Z,63.48
2019-06-26T14:48:15.905Z,63.45
2019-06-26T14:50:17.572Z,63.45
2019-06-26T14:52:19.146Z,63.43
2019-06-26T14:54:20.732Z,63.44
2019-06-26T14:56:22.307Z,63.43
2019-06-26T14:58:23.892Z,63.42
2019-06-26T15:00:25.481Z,63.41
2019-06-26T15:02:27.077Z,63.41
2019-06-26T15:04:28.669Z,63.38
2019-06-26T15:06:30.292Z,63.39
2019-06-26T15:08:31.881Z,63.38
2019-06-26T15:10:33.479Z,63.38
2019-06-26T15:12:35.068Z,63.36
2019-06-26T15:14:36.654Z,63.37
2019-06-26T15:16:38.325Z,63.36
2019-06-26T15:18:39.883Z,63.36
2019-06-26T15:20:41.489Z,63.34
2019-06-26T15:22:43.065Z,63.33
2019-06-26T15:24:44.665Z,63.32
2019-06-26T15:26:46.273Z,63.32
2019-06-26T15:28:47.860Z,63.32
2019-06-26T15:30:49.455Z,63.31
2019-06-26T15:32:51.049Z,63.31
2019-06-26T15:34:53.202Z,63.29
2019-06-26T15:36:54.833Z,63.29
2019-06-26T15:38:59.129Z,63.28
2019-06-26T15:40:58.069Z,63.29
2019-06-26T15:42:59.675Z,63.29
2019-06-26T15:45:01.251Z,63.25
2019-06-26T15:47:02.883Z,63.27
2019-06-26T15:49:04.480Z,63.26
2019-06-26T15:51:06.087Z,63.26
2019-06-26T15:53:07.671Z,63.25
2019-06-26T15:55:09.260Z,63.25
2019-06-26T15:57:10.884Z,63.24
2019-06-26T15:59:12.472Z,63.21
2019-06-26T16:01:14.079Z,63.21
2019-06-26T16:03:15.668Z,63.22
2019-06-26T16:05:17.244Z,63.23
2019-06-26T16:07:18.868Z,63.22
2019-06-26T16:09:20.477Z,63.21
2019-06-26T16:11:22.114Z,63.21
2019-06-26T16:13:23.697Z,63.21
2019-06-26T16:15:25.302Z,63.20
2019-06-26T16:17:32.575Z,63.22
2019-06-26T16:19:34.160Z,63.22
2019-06-26T16:21:35.781Z,63.21
2019-06-26T16:23:37.368Z,63.21
2019-06-26T16:25:38.964Z,63.21
2019-06-26T16:27:40.592Z,63.20
2019-06-26T16:29:42.214Z,63.18
2019-06-26T16:31:44.024Z,63.20
2019-06-26T16:33:45.608Z,63.21
2019-06-26T16:35:47.195Z,63.21
2019-06-26T16:37:48.817Z,63.19
2019-06-26T16:39:50.448Z,63.18
2019-06-26T16:41:52.022Z,63.16
2019-06-26T16:43:53.640Z,63.16
2019-06-26T16:45:55.224Z,63.05
2019-06-26T16:47:56.816Z,63.03
2019-06-26T16:49:58.428Z,63.09
2019-06-26T16:52:00.056Z,63.12
2019-06-26T16:54:03.039Z,63.15
2019-06-26T16:56:04.664Z,63.16
2019-06-26T16:58:06.261Z,63.16
2019-06-26T17:00:09.910Z,63.17
2019-06-26T17:02:09.503Z,63.16
2019-06-26T17:04:11.089Z,63.15
2019-06-26T17:06:12.673Z,63.15
2019-06-26T17:08:14.256Z,63.13
2019-06-26T17:10:15.852Z,63.16
2019-06-26T17:12:17.516Z,63.14
2019-06-26T17:14:19.092Z,63.14
2019-06-26T17:16:20.709Z,63.14
2019-06-26T17:18:22.299Z,63.13
2019-06-26T17:20:23.888Z,63.13
2019-06-26T17:22:25.700Z,63.14
2019-06-26T17:24:27.292Z,63.14
2019-06-26T17:26:28.875Z,63.12
2019-06-26T17:28:30.508Z,63.11
2019-06-26T17:30:32.104Z,63.12
2019-06-26T17:32:33.689Z,63.11
2019-06-26T17:34:35.330Z,63.08
2019-06-26T17:36:36.984Z,63.10
2019-06-26T17:38:38.580Z,63.10
2019-06-26T17:40:40.183Z,63.08
2019-06-26T17:42:41.812Z,63.08
2019-06-26T17:44:43.401Z,63.08
2019-06-26T17:46:44.974Z,63.08
2019-06-26T17:48:46.564Z,63.07
2019-06-26T17:50:48.159Z,63.07
2019-06-26T17:52:49.770Z,63.08
2019-06-26T17:54:51.359Z,63.07
2019-06-26T17:56:52.937Z,63.07
2019-06-26T17:58:54.522Z,63.06
2019-06-26T18:00:56.109Z,63.06
2019-06-26T18:02:57.699Z,63.07
2019-06-26T18:04:59.292Z,63.06
2019-06-26T18:07:01.072Z,63.07
2019-06-26T18:09:02.772Z,63.06
2019-06-26T18:11:04.359Z,63.03
2019-06-26T18:13:05.950Z,63.06
2019-06-26T18:15:07.581Z,63.06
2019-06-26T18:17:21.758Z,63.06
2019-06-26T18:19:11.093Z,63.07
2019-06-26T18:21:12.702Z,63.05
2019-06-26T18:23:14.346Z,63.06
2019-06-26T18:25:16.778Z,63.06
2019-06-26T18:27:17.564Z,63.03
2019-06-26T18:29:21.808Z,63.04
2019-06-26T18:31:23.474Z,63.11
2019-06-26T18:33:25.098Z,63.07
2019-06-26T18:35:26.670Z,63.04
2019-06-26T18:37:28.264Z,63.04
2019-06-26T18:39:29.888Z,63.04
2019-06-26T18:41:31.501Z,63.04
2019-06-26T18:43:33.126Z,63.04
2019-06-26T18:45:34.724Z,63.04
2019-06-26T18:47:36.311Z,63.04
2019-06-26T18:49:37.933Z,63.04
2019-06-26T18:51:39.558Z,63.04
2019-06-26T18:53:53.044Z,63.03
2019-06-26T18:55:42.799Z,63.02
2019-06-26T18:57:44.424Z,63.03
2019-06-26T18:59:46.117Z,63.02
2019-06-26T19:01:47.713Z,63.02
2019-06-26T19:03:49.353Z,63.03
2019-06-26T19:05:50.957Z,63.03
2019-06-26T19:07:52.526Z,63.02
2019-06-26T19:09:54.154Z,63.02
2019-06-26T19:11:55.762Z,63.02
2019-06-26T19:13:57.348Z,63.02
2019-06-26T19:15:58.939Z,63.02
2019-06-26T19:18:00.533Z,63.02
2019-06-26T19:20:02.167Z,63.02
2019-06-26T19:22:03.772Z,63.01
2019-06-26T19:24:10.186Z,63.02
2019-06-26T19:26:07.133Z,63.02
2019-06-26T19:28:08.715Z,63.01
2019-06-26T19:30:10.336Z,63.00
2019-06-26T19:32:11.922Z,63.00
2019-06-26T19:34:13.581Z,62.99
2019-06-26T19:36:15.183Z,63.00
2019-06-26T19:38:16.770Z,63.00
2019-06-26T19:40:18.354Z,63.00
2019-06-26T19:42:19.940Z,63.00
2019-06-26T19:44:21.560Z,62.99
2019-06-26T19:46:23.257Z,62.99
2019-06-26T19:48:24.852Z,62.99
2019-06-26T19:50:26.428Z,62.98
2019-06-26T19:52:28.032Z,62.99
2019-06-26T19:54:32.170Z,62.99
2019-06-26T19:56:41.200Z,62.98
2019-06-26T19:58:42.784Z,62.97
2019-06-26T20:00:44.368Z,62.98
2019-06-26T20:02:45.967Z,62.98
2019-06-26T20:04:48.500Z,62.99
2019-06-26T20:06:49.328Z,62.98
2019-06-26T20:08:56.142Z,62.98
2019-06-26T20:10:52.582Z,62.98
2019-06-26T20:12:54.168Z,62.98
2019-06-26T20:14:55.788Z,62.98
2019-06-26T20:16:57.386Z,62.98
2019-06-26T20:18:58.993Z,62.98
2019-06-26T20:21:00.617Z,62.99
2019-06-26T20:23:02.371Z,62.98
2019-06-26T20:25:03.932Z,62.96
2019-06-26T20:27:05.550Z,62.97
2019-06-26T20:29:07.196Z,62.98
2019-06-26T20:31:08.787Z,62.98
2019-06-26T20:33:10.383Z,62.98
2019-06-26T20:35:12.029Z,62.97
2019-06-26T20:37:13.640Z,62.97
2019-06-26T20:39:15.232Z,62.98
2019-06-26T20:41:16.820Z,62.98
2019-06-26T20:43:18.405Z,62.96
2019-06-26T20:45:20.000Z,62.97
2019-06-26T20:47:21.589Z,62.96
2019-06-26T20:49:23.176Z,62.96
2019-06-26T20:51:24.791Z,62.96
2019-06-26T20:53:27.975Z,62.96
2019-06-26T20:55:28.094Z,62.97
2019-06-26T20:57:29.691Z,62.97
2019-06-26T20:59:31.354Z,63.25
2019-06-26T21:01:33.013Z,67.22
2019-06-26T21:03:34.600Z,62.87
2019-06-26T21:05:36.251Z,62.60
2019-06-26T21:07:37.840Z,62.18
2019-06-26T21:09:39.494Z,62.99
2019-06-26T21:11:41.082Z,65.12
2019-06-26T21:13:42.704Z,62.66
2019-06-26T21:15:44.287Z,61.06
2019-06-26T21:17:45.872Z,60.86
2019-06-26T21:19:47.476Z,61.57
2019-06-26T21:21:49.099Z,61.08
2019-06-26T21:23:50.714Z,61.59
2019-06-26T21:25:52.369Z,61.41
2019-06-26T21:27:53.964Z,60.77
2019-06-26T21:29:55.602Z,60.48
2019-06-26T21:31:57.216Z,60.06
2019-06-26T21:33:58.839Z,61.25
2019-06-26T21:36:00.478Z,61.04
2019-06-26T21:38:02.130Z,60.67
2019-06-26T21:40:03.781Z,60.53
2019-06-26T21:42:05.558Z,60.89
2019-06-26T21:44:07.161Z,60.48
2019-06-26T21:46:08.803Z,61.50
2019-06-26T21:48:10.407Z,60.05
2019-06-26T21:50:11.997Z,61.08
2019-06-26T21:52:13.631Z,60.82
2019-06-26T21:54:15.220Z,60.77
2019-06-26T21:56:16.840Z,61.58
2019-06-26T21:58:18.440Z,61.51
2019-06-26T22:00:20.070Z,61.43
2019-06-26T22:02:21.732Z,61.23
2019-06-26T22:04:23.334Z,60.57
2019-06-26T22:06:25.001Z,60.40
2019-06-26T22:08:26.610Z,60.37
2019-06-26T22:10:28.201Z,60.31
2019-06-26T22:12:29.821Z,60.72
2019-06-26T22:14:31.416Z,60.52
2019-06-26T22:16:33.042Z,60.87
2019-06-26T22:18:34.666Z,60.37
2019-06-26T22:20:36.273Z,61.99
2019-06-26T22:22:37.886Z,61.71
2019-06-26T22:24:39.537Z,62.33
2019-06-26T22:26:41.159Z,61.52
2019-06-26T22:28:42.779Z,61.60
2019-06-26T22:30:44.394Z,61.56
2019-06-26T22:32:46.191Z,61.66
2019-06-26T22:34:48.254Z,61.78
2019-06-26T22:36:52.007Z,61.83
2019-06-26T22:38:51.172Z,62.01
2019-06-26T22:40:52.790Z,62.14
2019-06-26T22:42:54.402Z,62.20
2019-06-26T22:44:56.024Z,62.36
2019-06-26T22:46:57.636Z,62.43
2019-06-26T22:48:59.300Z,62.51
2019-06-26T22:51:00.938Z,62.49
2019-06-26T22:53:02.747Z,62.64
2019-06-26T22:55:04.368Z,62.72
2019-06-26T22:57:05.998Z,62.80
2019-06-26T22:59:07.667Z,62.85
2019-06-26T23:01:09.307Z,62.98
2019-06-26T23:03:10.999Z,63.15
2019-06-26T23:05:12.631Z,63.28
2019-06-26T23:07:14.266Z,63.34
2019-06-26T23:09:15.931Z,63.43
2019-06-26T23:11:17.567Z,63.60
2019-06-26T23:13:19.331Z,63.64
2019-06-26T23:15:20.954Z,63.77
2019-06-26T23:17:22.569Z,63.96
2019-06-26T23:19:24.239Z,64.24
2019-06-26T23:21:25.894Z,64.44
2019-06-26T23:23:27.531Z,64.65
2019-06-26T23:25:29.178Z,64.80
2019-06-26T23:27:30.939Z,65.19
2019-06-26T23:29:32.607Z,65.23
2019-06-26T23:31:34.238Z,65.51
2019-06-26T23:33:35.893Z,66.01
2019-06-26T23:35:37.541Z,66.08
2019-06-26T23:37:39.214Z,66.39
2019-06-26T23:39:40.846Z,66.89
2019-06-26T23:41:42.484Z,66.70
2019-06-26T23:43:44.154Z,66.36
2019-06-26T23:45:45.786Z,66.37
2019-06-26T23:47:47.456Z,66.24
2019-06-26T23:49:49.088Z,66.25
2019-06-26T23:51:50.722Z,66.14
2019-06-26T23:53:52.387Z,66.19
2019-06-26T23:55:54.013Z,66.10
2019-06-26T23:57:59.339Z,65.91
2019-06-26T23:59:57.378Z,65.84
